Terminal Aerodrome Forecast
Issued by NWS

Home | Current Version | Previous Version | Text Only | Print | Product List | Glossary On
Versions: 1 2 3 4 5 6 7 8 9 10 11 12 13 14 15 16
000
FTUS41 KBGM 260530
TAFITH
TAF
KITH 260530Z 2606/2706 19010KT P6SM BKN200
     FM260700 19005KT P6SM BKN070 OVC150
     FM261100 21010KT P6SM BKN050
     FM261900 18010KT P6SM BKN050 OVC100 PROB30 2620/2624 5SM -TSRA
      BR BKN050CB=

USA.gov is the U.S. government's official web portal to all federal, state and local government web resources and services.